• Join FlightAware (Why Join?)
  • Login
  • US Flag 
03:49PM EDT


 

Airport Tracker/Info


-or-


 

Live Flight TrackerFlight Track Log ✈ N713MD ✈ 08-Dec-2013 ✈ KNEW - KCQF

Flight Track Log - Related Links

Times and Time Zones

All times are in EST time to prevent confusion due to time zone crossing. See the N713MD flight status page for this flight to view local times or setup timezone preferences in your user account.

Time Position Orientation Groundspeed Altitude Reporting Facility
EST Latitude Longitude Course Direction KTS MPH feet Rate Location/Type
08:01PM 30.1089 -90.0275 North 192 221 2,300  Level Houston Center
08:02PM 30.1628 -90.0131 13° North 205 236 4,300 1,680 Climbing Houston Center
08:02PM 30.1592 -90.0183 232° Southwest 196 226 4,100 2,040 Descending Houston Center
08:03PM 30.1597 -89.9497 89° East 189 217 6,500 2,220 Climbing Houston Center
08:04PM 30.1506 -89.8911 100° East 193 222 8,500 1,920 Climbing Houston Center
08:04PM 30.1514 -89.8881 72° East 191 220 8,500 1,800 Level Houston Center
08:05PM 30.1456 -89.8242 96° East 199 229 10,500 1,860 Climbing Houston Center
08:06PM 30.1433 -89.7589 92° East 204 235 12,300 1,560 Climbing Houston Center
08:07PM 30.1331 -89.6933 100° East 208 239 13,800 1,260 Climbing Houston Center
08:08PM 30.1211 -89.6211 101° East 224 258 15,000 540 Climbing Houston Center
08:09PM 30.1033 -89.5156 101° East 273 314 15,000  Level Houston Center
08:10PM 30.0992 -89.4178 93° East 310 357 15,000  Level Houston Center
08:11PM 30.1347 -89.3244 66° East 320 368 15,000  Level Houston Center
08:12PM 30.1697 -89.2292 67° East 322 371 15,000  Level Houston Center
08:13PM 30.2067 -89.1353 65° Northeast 323 372 15,000  Level Houston Center
08:14PM 30.2428 -89.0414 66° East 321 369 15,000  Level Houston Center
08:15PM 30.2844 -88.9322 66° East 322 371 15,000  Level Houston Center
08:16PM 30.3200 -88.8378 66° East 322 371 15,000 -300 Level Houston Center
08:17PM 30.3550 -88.7425 67° East 323 372 14,500 -960 Descending Houston Center
08:18PM 30.3903 -88.6494 66° East 318 366 13,100 -1,440 Descending Houston Center
08:19PM 30.4247 -88.5589 66° East 312 359 11,600 -1,560 Descending Houston Center
08:20PM 30.4572 -88.4692 67° East 306 352 10,000 -1,500 Descending Houston Center
08:21PM 30.4908 -88.3831 66° East 300 345 8,600 -1,620 Descending Houston Center
08:22PM 30.5253 -88.2908 67° East 268 308 6,700 -1,680 Descending Houston Center
08:23PM 30.5547 -88.2150 66° East 261 300 5,200 -900 Descending Houston Center
08:24PM 30.5822 -88.1381 67° East 262 302 4,900 -120 Descending Houston Center
08:25PM 30.6092 -88.0664 66° East 254 292 5,000 -60 Climbing Houston Center
08:26PM 30.6461 -88.0019 56° Northeast 250 288 4,800 -840 Descending Houston Center
08:27PM 30.6528 -87.9317 84° East 235 270 3,400 -960 Descending Houston Center
08:28PM 30.6456 -87.8786 99° East 194 223 2,900 -480 Descending Houston Center
08:29PM 30.6281 -87.8372 116° Southeast 171 197 2,500 -660 Descending Houston Center
08:30PM 30.5950 -87.8489 197° South 123 142 1,600 -480 Descending Houston Center
08:31PM 30.5664 -87.8614 201° Southwest 114 131 1,600 -120 Level Houston Center
08:32PM 30.5319 -87.8656 186° South 114 131 1,400 -240 Descending Houston Center
08:34PM 30.4638 -87.8665 181° South  Level FlightAware Approximate